createdAt,value
2023-05-12T00:01:26.033Z,15.50
2023-05-12T00:03:53.814Z,15.39
2023-05-12T00:06:20.967Z,15.50
2023-05-12T00:08:47.328Z,15.35
2023-05-12T00:11:13.785Z,15.26
2023-05-12T00:13:40.233Z,15.18
2023-05-12T00:16:06.923Z,15.29
2023-05-12T00:18:33.476Z,15.20
2023-05-12T00:20:59.901Z,15.27
2023-05-12T00:23:26.272Z,15.28
2023-05-12T00:25:52.668Z,15.18
2023-05-12T00:28:20.996Z,15.27
2023-05-12T00:30:47.394Z,15.35
2023-05-12T00:33:13.818Z,14.97
2023-05-12T00:35:40.263Z,14.97
2023-05-12T00:38:06.720Z,14.98
2023-05-12T00:40:33.108Z,15.06
2023-05-12T00:42:59.501Z,15.19
2023-05-12T00:45:26.617Z,15.15
2023-05-12T00:47:53.500Z,14.97
2023-05-12T00:50:21.135Z,15.01
2023-05-12T00:52:49.323Z,14.99
2023-05-12T00:55:16.377Z,14.96
2023-05-12T00:57:43.632Z,15.01
2023-05-12T01:00:10.675Z,15.01
2023-05-12T01:02:37.232Z,15.25
2023-05-12T01:05:04.216Z,14.92
2023-05-12T01:07:33.116Z,14.75
2023-05-12T01:09:59.907Z,14.96
2023-05-12T01:12:27.224Z,14.91
2023-05-12T01:14:54.974Z,14.73
2023-05-12T01:17:28.106Z,14.92
2023-05-12T01:19:58.639Z,15.04
2023-05-12T01:22:26.331Z,14.99
2023-05-12T01:24:56.987Z,15.09
2023-05-12T01:27:26.503Z,14.90
2023-05-12T01:29:54.529Z,14.90
2023-05-12T01:32:22.095Z,14.89
2023-05-12T01:34:49.600Z,14.65
2023-05-12T01:37:16.060Z,14.80
2023-05-12T01:39:42.737Z,14.81
2023-05-12T01:42:09.108Z,14.93
2023-05-12T01:44:35.528Z,14.79
2023-05-12T01:47:02.021Z,14.96
2023-05-12T01:49:28.975Z,14.78
2023-05-12T01:51:55.748Z,14.84
2023-05-12T01:54:22.214Z,14.87
2023-05-12T01:56:48.606Z,14.75
2023-05-12T01:59:15.387Z,14.55
2023-05-12T02:01:42.088Z,14.56
2023-05-12T02:04:09.117Z,14.47
2023-05-12T02:06:35.866Z,14.88
2023-05-12T02:09:02.661Z,14.64
2023-05-12T02:11:29.040Z,14.71
2023-05-12T02:13:55.408Z,14.60
2023-05-12T02:16:22.000Z,14.59
2023-05-12T02:18:48.788Z,14.59
2023-05-12T02:21:15.282Z,14.55
2023-05-12T02:23:41.715Z,14.62
2023-05-12T02:26:08.178Z,14.57
2023-05-12T02:28:34.850Z,14.61
2023-05-12T02:31:01.200Z,14.59
2023-05-12T02:33:27.532Z,14.67
2023-05-12T02:35:53.912Z,14.56
2023-05-12T02:38:20.406Z,14.42
2023-05-12T02:40:47.511Z,14.40
2023-05-12T02:43:13.939Z,14.32
2023-05-12T02:45:40.416Z,14.32
2023-05-12T02:48:07.237Z,14.29
2023-05-12T02:50:33.688Z,14.20
2023-05-12T02:53:00.030Z,14.23
2023-05-12T02:55:27.089Z,14.23
2023-05-12T02:57:53.613Z,14.21
2023-05-12T03:00:20.105Z,14.25
2023-05-12T03:02:46.795Z,14.29
2023-05-12T03:05:13.306Z,14.36
2023-05-12T03:07:39.731Z,14.50
2023-05-12T03:10:06.631Z,14.52
2023-05-12T03:12:33.016Z,14.20
2023-05-12T03:14:59.360Z,14.29
2023-05-12T03:17:26.015Z,14.36
2023-05-12T03:19:52.544Z,14.36
2023-05-12T03:22:19.028Z,14.27
2023-05-12T03:24:46.357Z,14.21
2023-05-12T03:27:13.041Z,14.15
2023-05-12T03:29:39.490Z,13.95
2023-05-12T03:32:06.378Z,13.98
2023-05-12T03:34:33.064Z,13.96
2023-05-12T03:36:59.724Z,14.00
2023-05-12T03:39:26.164Z,13.93
2023-05-12T03:41:52.533Z,13.93
2023-05-12T03:44:18.940Z,13.83
2023-05-12T03:46:45.642Z,14.00
2023-05-12T03:49:12.550Z,13.88
2023-05-12T03:51:39.262Z,13.86
2023-05-12T03:54:05.846Z,13.87
2023-05-12T03:56:32.275Z,13.88
2023-05-12T03:58:58.905Z,13.97
2023-05-12T04:01:25.474Z,14.21
2023-05-12T04:03:51.955Z,14.05
2023-05-12T04:06:18.335Z,14.06
2023-05-12T04:08:44.706Z,14.09
2023-05-12T04:11:11.150Z,14.13
2023-05-12T04:13:37.635Z,13.88
2023-05-12T04:16:04.445Z,13.79
2023-05-12T04:18:30.924Z,13.87
2023-05-12T04:20:57.872Z,13.92
2023-05-12T04:23:24.377Z,13.79
2023-05-12T04:25:50.858Z,13.84
2023-05-12T04:28:17.240Z,13.89
2023-05-12T04:30:43.617Z,13.86
2023-05-12T04:33:10.318Z,13.97
2023-05-12T04:35:37.055Z,14.03
2023-05-12T04:38:03.522Z,14.09
2023-05-12T04:40:32.669Z,13.98
2023-05-12T04:43:00.719Z,14.01
2023-05-12T04:45:27.107Z,14.04
2023-05-12T04:47:53.524Z,14.22
2023-05-12T04:50:20.070Z,14.28
2023-05-12T04:52:46.533Z,14.31
2023-05-12T04:55:12.886Z,14.26
2023-05-12T04:57:41.235Z,14.32
2023-05-12T05:00:09.052Z,14.36
2023-05-12T05:02:35.718Z,14.37
2023-05-12T05:05:02.218Z,14.41
2023-05-12T05:07:28.781Z,14.41
2023-05-12T05:09:55.216Z,14.44
2023-05-12T05:12:21.569Z,14.38
2023-05-12T05:14:48.067Z,14.26
2023-05-12T05:17:14.543Z,14.32
2023-05-12T05:19:54.864Z,14.46
2023-05-12T05:22:25.268Z,14.87
2023-05-12T05:24:51.974Z,14.89
2023-05-12T05:27:18.629Z,14.95
2023-05-12T05:29:45.019Z,14.97
2023-05-12T05:32:11.453Z,14.78
2023-05-12T05:34:38.205Z,14.87
2023-05-12T05:37:04.795Z,14.90
2023-05-12T05:39:31.460Z,15.05
2023-05-12T05:41:58.082Z,15.11
2023-05-12T05:44:25.121Z,15.13
2023-05-12T05:46:51.836Z,15.10
2023-05-12T05:49:18.774Z,15.28
2023-05-12T05:51:45.253Z,15.10
2023-05-12T05:54:12.113Z,15.27
2023-05-12T05:56:38.573Z,15.18
2023-05-12T05:59:05.287Z,15.23
2023-05-12T06:01:32.620Z,15.27
2023-05-12T06:03:59.202Z,15.37
2023-05-12T06:06:26.020Z,15.27
2023-05-12T06:08:52.532Z,15.35
2023-05-12T06:11:18.895Z,15.46
2023-05-12T06:13:45.348Z,15.46
2023-05-12T06:16:11.769Z,15.50
2023-05-12T06:18:38.619Z,15.40
2023-05-12T06:21:06.151Z,15.60
2023-05-12T06:23:35.079Z,15.64
2023-05-12T06:26:01.470Z,15.67
2023-05-12T06:28:27.848Z,15.72
2023-05-12T06:30:54.201Z,15.80
2023-05-12T06:33:20.810Z,15.81
2023-05-12T06:35:47.187Z,15.86
2023-05-12T06:38:13.691Z,15.92
2023-05-12T06:40:40.206Z,16.07
2023-05-12T06:43:07.298Z,16.27
2023-05-12T06:45:33.778Z,16.30
2023-05-12T06:48:01.503Z,16.25
2023-05-12T06:50:27.949Z,16.18
2023-05-12T06:52:54.314Z,16.22
2023-05-12T06:55:21.186Z,16.23
2023-05-12T06:57:47.798Z,16.27
2023-05-12T07:00:14.632Z,16.35
2023-05-12T07:02:41.247Z,16.41
2023-05-12T07:05:08.138Z,16.46
2023-05-12T07:07:35.934Z,16.46
2023-05-12T07:10:02.381Z,16.53
2023-05-12T07:12:28.790Z,16.61
2023-05-12T07:14:55.313Z,16.68
2023-05-12T07:17:21.821Z,16.70
2023-05-12T07:19:48.326Z,16.73
2023-05-12T07:22:14.800Z,16.75
2023-05-12T07:24:41.613Z,16.79
2023-05-12T07:27:08.227Z,16.80
2023-05-12T07:29:34.888Z,16.99
2023-05-12T07:32:01.425Z,17.00
2023-05-12T07:34:27.847Z,16.97
2023-05-12T07:36:54.391Z,17.05
2023-05-12T07:39:23.717Z,17.11
2023-05-12T07:41:51.096Z,17.18
2023-05-12T07:44:17.682Z,17.32
2023-05-12T07:46:44.426Z,17.33
2023-05-12T07:49:10.918Z,17.35
2023-05-12T07:51:37.386Z,17.33
2023-05-12T07:54:04.833Z,17.33
2023-05-12T07:56:31.324Z,17.41
2023-05-12T07:58:57.733Z,17.46
2023-05-12T08:01:24.524Z,17.59
2023-05-12T08:03:51.648Z,17.68
2023-05-12T08:06:18.579Z,17.71
2023-05-12T08:08:45.130Z,17.68
2023-05-12T08:11:12.679Z,17.83
2023-05-12T08:13:40.291Z,17.80
2023-05-12T08:16:06.681Z,17.82
2023-05-12T08:18:33.083Z,17.76
2023-05-12T08:20:59.458Z,17.77
2023-05-12T08:23:26.053Z,17.78
2023-05-12T08:25:52.461Z,17.77
2023-05-12T08:28:18.804Z,17.87
2023-05-12T08:30:45.556Z,17.91
2023-05-12T08:33:12.522Z,18.05
2023-05-12T08:35:39.157Z,18.10
2023-05-12T08:38:05.866Z,18.26
2023-05-12T08:40:38.177Z,18.27
2023-05-12T08:43:04.613Z,18.29
2023-05-12T08:45:31.434Z,18.35
2023-05-12T08:47:59.108Z,18.26
2023-05-12T08:50:27.097Z,18.27
2023-05-12T08:52:53.644Z,18.28
2023-05-12T08:55:20.840Z,18.26
2023-05-12T08:57:48.653Z,18.30
2023-05-12T09:00:16.373Z,18.33
2023-05-12T09:02:52.851Z,18.46
2023-05-12T09:05:21.209Z,18.59
2023-05-12T09:07:49.991Z,18.59
2023-05-12T09:10:32.762Z,18.68
2023-05-12T09:13:15.726Z,18.76
2023-05-12T09:15:45.360Z,18.98
2023-05-12T09:18:11.723Z,18.94
2023-05-12T09:20:38.188Z,19.05
2023-05-12T09:23:19.192Z,19.01
2023-05-12T09:25:48.889Z,19.03
2023-05-12T09:28:15.554Z,19.18
2023-05-12T09:30:42.597Z,19.30
2023-05-12T09:33:11.033Z,19.29
2023-05-12T09:35:45.508Z,19.32
2023-05-12T09:38:14.877Z,19.43
2023-05-12T09:40:42.405Z,19.49
2023-05-12T09:43:09.115Z,19.61
2023-05-12T09:45:36.764Z,19.63
2023-05-12T09:48:13.749Z,19.73
2023-05-12T09:50:51.341Z,19.70
2023-05-12T09:53:19.371Z,19.76
2023-05-12T09:55:47.273Z,19.85
2023-05-12T09:58:16.329Z,19.96
2023-05-12T10:01:09.022Z,19.96
2023-05-12T10:03:32.481Z,19.94
2023-05-12T10:06:02.686Z,19.96
2023-05-12T10:08:51.888Z,20.04
2023-05-12T10:11:19.637Z,20.04
2023-05-12T10:13:46.806Z,20.18
2023-05-12T10:16:14.176Z,20.25
2023-05-12T10:18:43.321Z,20.32
2023-05-12T10:21:11.983Z,20.34
2023-05-12T10:23:41.384Z,20.34
2023-05-12T10:26:07.835Z,20.37
2023-05-12T10:28:34.201Z,20.48
2023-05-12T10:31:00.811Z,20.50
2023-05-12T10:33:27.685Z,20.54
2023-05-12T10:35:54.230Z,20.65
2023-05-12T10:38:20.627Z,20.72
2023-05-12T10:40:59.780Z,20.66
2023-05-12T10:43:29.009Z,20.62
2023-05-12T10:46:16.406Z,20.61
2023-05-12T10:48:51.543Z,20.61
2023-05-12T10:51:23.195Z,20.70
2023-05-12T10:53:59.016Z,20.64
2023-05-12T10:56:40.007Z,20.90
2023-05-12T10:59:18.629Z,21.00
2023-05-12T11:01:59.049Z,20.98
2023-05-12T11:04:50.397Z,21.03
2023-05-12T11:07:22.216Z,21.05
2023-05-12T11:09:56.940Z,20.97
2023-05-12T11:12:26.742Z,21.04
2023-05-12T11:14:53.527Z,21.18
2023-05-12T11:17:19.948Z,21.19
2023-05-12T11:19:48.317Z,21.10
2023-05-12T11:22:18.435Z,20.96
2023-05-12T11:24:44.792Z,20.86
2023-05-12T11:27:18.559Z,20.92
2023-05-12T11:29:55.102Z,20.73
2023-05-12T11:32:21.485Z,20.83
2023-05-12T11:34:47.839Z,20.90
2023-05-12T11:37:14.373Z,20.90
2023-05-12T11:39:41.809Z,20.88
2023-05-12T11:42:13.427Z,20.90
2023-05-12T11:44:50.593Z,20.75
2023-05-12T11:47:19.390Z,20.71
2023-05-12T11:49:54.967Z,20.60
2023-05-12T11:52:23.042Z,20.62
2023-05-12T11:54:57.355Z,20.63
2023-05-12T11:57:32.550Z,20.60
2023-05-12T12:00:07.618Z,20.81
2023-05-12T12:02:35.757Z,20.88
2023-05-12T12:05:02.593Z,20.90
2023-05-12T12:07:34.256Z,20.89
2023-05-12T12:10:14.389Z,20.98
2023-05-12T12:12:41.974Z,20.89
2023-05-12T12:15:09.570Z,20.90
2023-05-12T12:17:36.124Z,20.85
2023-05-12T12:20:02.999Z,20.88
2023-05-12T12:22:34.024Z,20.87
2023-05-12T12:25:01.254Z,20.76
2023-05-12T12:27:27.608Z,20.76
2023-05-12T12:29:53.969Z,20.80
2023-05-12T12:32:20.424Z,20.77
2023-05-12T12:34:48.451Z,20.77
2023-05-12T12:37:14.836Z,20.78
2023-05-12T12:39:41.419Z,20.81
2023-05-12T12:42:08.291Z,20.68
2023-05-12T12:44:34.653Z,20.65
2023-05-12T12:47:01.235Z,20.50
2023-05-12T12:49:27.719Z,20.53
2023-05-12T12:51:55.233Z,20.66
2023-05-12T12:54:21.771Z,20.54
2023-05-12T12:56:48.179Z,20.61
2023-05-12T12:59:14.948Z,20.65
2023-05-12T13:01:41.435Z,20.81
2023-05-12T13:04:07.835Z,20.85
2023-05-12T13:06:34.714Z,20.87
2023-05-12T13:09:01.535Z,20.94
2023-05-12T13:11:28.250Z,20.88
2023-05-12T13:13:54.610Z,20.89
2023-05-12T13:16:21.076Z,20.89
2023-05-12T13:18:47.551Z,21.07
2023-05-12T13:21:14.113Z,21.09
2023-05-12T13:23:40.558Z,21.05
2023-05-12T13:26:06.941Z,20.98
2023-05-12T13:28:33.297Z,20.99
2023-05-12T13:31:00.003Z,20.93
2023-05-12T13:33:26.403Z,21.01
2023-05-12T13:35:52.899Z,20.94
2023-05-12T13:38:19.813Z,20.83
2023-05-12T13:40:46.360Z,20.85
2023-05-12T13:43:12.984Z,20.87
2023-05-12T13:45:39.436Z,20.71
2023-05-12T13:48:06.212Z,20.71
2023-05-12T13:50:33.745Z,20.74
2023-05-12T13:53:00.434Z,20.74
2023-05-12T13:55:27.201Z,21.02
2023-05-12T13:57:53.770Z,20.92
2023-05-12T14:00:20.457Z,21.03
2023-05-12T14:02:46.902Z,21.08
2023-05-12T14:05:13.490Z,21.03
2023-05-12T14:07:40.208Z,21.14
2023-05-12T14:10:07.059Z,21.06
2023-05-12T14:12:33.552Z,21.10
2023-05-12T14:15:15.726Z,20.94
2023-05-12T14:17:46.434Z,21.07
2023-05-12T14:20:13.025Z,21.03
2023-05-12T14:22:39.465Z,21.10
2023-05-12T14:25:06.252Z,21.19
2023-05-12T14:27:32.634Z,21.03
2023-05-12T14:29:59.030Z,20.94
2023-05-12T14:32:25.495Z,20.55
2023-05-12T14:34:51.944Z,20.21
2023-05-12T14:37:18.414Z,19.95
2023-05-12T14:39:44.883Z,19.75
2023-05-12T14:42:11.336Z,19.78
2023-05-12T14:44:37.738Z,19.67
2023-05-12T14:47:04.669Z,19.46
2023-05-12T14:49:31.699Z,19.44
2023-05-12T14:51:58.098Z,19.39
2023-05-12T14:54:25.701Z,19.38
2023-05-12T14:56:52.843Z,19.32
2023-05-12T14:59:19.374Z,19.42
2023-05-12T15:01:46.050Z,19.49
2023-05-12T15:04:13.189Z,19.59
2023-05-12T15:06:39.978Z,19.74
2023-05-12T15:09:07.221Z,19.75
2023-05-12T15:11:33.684Z,19.74
2023-05-12T15:14:00.379Z,19.81
2023-05-12T15:16:28.073Z,19.91
2023-05-12T15:18:54.711Z,19.98
2023-05-12T15:21:21.276Z,19.91
2023-05-12T15:23:47.916Z,20.00
2023-05-12T15:26:31.319Z,20.23
2023-05-12T15:28:59.747Z,20.49
2023-05-12T15:31:28.852Z,20.21
2023-05-12T15:33:56.567Z,20.41
2023-05-12T15:36:22.957Z,20.12
2023-05-12T15:38:49.349Z,20.29
2023-05-12T15:41:15.730Z,20.31
2023-05-12T15:43:42.430Z,20.37
2023-05-12T15:46:10.898Z,20.49
2023-05-12T15:48:37.615Z,20.48
2023-05-12T15:51:04.221Z,20.50
2023-05-12T15:53:30.989Z,20.42
2023-05-12T15:56:04.753Z,20.53
2023-05-12T15:58:31.480Z,20.61
2023-05-12T16:00:58.015Z,20.65
2023-05-12T16:03:24.560Z,20.66
2023-05-12T16:05:51.239Z,20.69
2023-05-12T16:08:17.697Z,20.57
2023-05-12T16:10:44.302Z,20.26
2023-05-12T16:13:10.784Z,20.14
2023-05-12T16:15:37.290Z,20.16
2023-05-12T16:18:03.912Z,19.93
2023-05-12T16:20:30.404Z,19.88
2023-05-12T16:22:56.825Z,19.73
2023-05-12T16:25:23.332Z,19.64
2023-05-12T16:27:50.109Z,19.60
2023-05-12T16:30:19.102Z,19.67
2023-05-12T16:32:47.393Z,19.63
2023-05-12T16:35:13.987Z,19.49
2023-05-12T16:37:40.435Z,19.59
2023-05-12T16:40:07.702Z,19.50
2023-05-12T16:42:35.349Z,19.36
2023-05-12T16:45:01.752Z,19.43
2023-05-12T16:47:29.482Z,19.44
2023-05-12T16:49:57.595Z,19.25
2023-05-12T16:52:24.005Z,19.27
2023-05-12T16:54:50.727Z,19.27
2023-05-12T16:57:18.251Z,19.06
2023-05-12T16:59:45.193Z,18.99
2023-05-12T17:02:11.802Z,19.01
2023-05-12T17:04:38.243Z,18.82
2023-05-12T17:07:04.745Z,18.80
2023-05-12T17:09:31.109Z,18.57
2023-05-12T17:11:57.461Z,18.51
2023-05-12T17:14:23.792Z,18.53
2023-05-12T17:16:50.164Z,18.37
2023-05-12T17:19:16.562Z,18.34
2023-05-12T17:21:42.939Z,18.31
2023-05-12T17:24:09.516Z,18.15
2023-05-12T17:26:36.047Z,18.22
2023-05-12T17:29:02.517Z,18.12
2023-05-12T17:31:29.146Z,18.18
2023-05-12T17:33:55.626Z,18.14
2023-05-12T17:36:22.141Z,18.34
2023-05-12T17:38:50.018Z,19.59
2023-05-12T17:41:16.501Z,20.73
2023-05-12T17:43:42.988Z,20.69
2023-05-12T17:46:09.743Z,20.80
2023-05-12T17:48:38.244Z,20.78
2023-05-12T17:51:04.937Z,20.90
2023-05-12T17:53:32.272Z,20.64
2023-05-12T17:55:59.794Z,20.69
2023-05-12T17:58:26.301Z,20.55
2023-05-12T18:00:52.852Z,20.50
2023-05-12T18:03:23.556Z,20.44
2023-05-12T18:05:51.977Z,20.07
2023-05-12T18:08:19.003Z,19.73
2023-05-12T18:10:45.955Z,19.64
2023-05-12T18:13:13.043Z,19.51
2023-05-12T18:15:39.434Z,19.45
2023-05-12T18:18:06.092Z,19.48
2023-05-12T18:20:32.506Z,19.33
2023-05-12T18:22:58.953Z,19.28
2023-05-12T18:25:25.423Z,19.32
2023-05-12T18:27:52.684Z,18.78
2023-05-12T18:30:19.237Z,18.80
2023-05-12T18:32:45.627Z,18.46
2023-05-12T18:35:12.268Z,18.44
2023-05-12T18:37:38.648Z,18.34
2023-05-12T18:40:06.820Z,18.44
2023-05-12T18:42:34.258Z,18.40
2023-05-12T18:45:00.727Z,18.49
2023-05-12T18:47:27.257Z,18.29
2023-05-12T18:49:53.852Z,18.08
2023-05-12T18:52:21.237Z,18.03
2023-05-12T18:54:49.407Z,17.98
2023-05-12T18:57:16.397Z,18.08
2023-05-12T18:59:42.859Z,18.10
2023-05-12T19:02:09.290Z,17.89
2023-05-12T19:04:35.888Z,17.81
2023-05-12T19:07:02.427Z,17.50
2023-05-12T19:09:29.067Z,17.55
2023-05-12T19:11:55.585Z,17.37
2023-05-12T19:14:22.496Z,17.39
2023-05-12T19:16:48.942Z,17.35
2023-05-12T19:19:15.474Z,17.27
2023-05-12T19:21:41.849Z,17.31
2023-05-12T19:24:10.385Z,17.18
2023-05-12T19:26:37.254Z,17.01
2023-05-12T19:29:04.402Z,17.04
2023-05-12T19:31:30.961Z,16.90
2023-05-12T19:33:57.377Z,17.05
2023-05-12T19:36:23.777Z,17.00
2023-05-12T19:38:50.159Z,16.84
2023-05-12T19:41:16.540Z,16.77
2023-05-12T19:43:42.904Z,16.71
2023-05-12T19:46:09.284Z,16.63
2023-05-12T19:48:35.966Z,16.59
2023-05-12T19:51:02.397Z,16.51
2023-05-12T19:53:28.840Z,16.33
2023-05-12T19:55:55.298Z,16.32
2023-05-12T19:58:21.652Z,16.28
2023-05-12T20:00:48.658Z,16.10
2023-05-12T20:03:15.380Z,16.14
2023-05-12T20:05:42.261Z,15.94
2023-05-12T20:08:08.704Z,15.95
2023-05-12T20:10:35.201Z,15.89
2023-05-12T20:13:03.733Z,15.85
2023-05-12T20:15:31.284Z,15.80
2023-05-12T20:17:58.125Z,16.08
2023-05-12T20:20:24.682Z,16.04
2023-05-12T20:22:51.461Z,15.79
2023-05-12T20:25:17.986Z,15.71
2023-05-12T20:27:45.053Z,15.76
2023-05-12T20:30:12.637Z,15.68
2023-05-12T20:32:39.257Z,15.34
2023-05-12T20:35:09.211Z,15.40
2023-05-12T20:37:35.651Z,15.43
2023-05-12T20:40:02.153Z,15.62
2023-05-12T20:42:28.745Z,15.32
2023-05-12T20:44:55.297Z,15.14
2023-05-12T20:47:21.748Z,15.15
2023-05-12T20:49:48.480Z,14.93
2023-05-12T20:52:15.232Z,14.77
2023-05-12T20:54:41.709Z,15.14
2023-05-12T20:57:10.254Z,14.91
2023-05-12T20:59:36.632Z,14.83
2023-05-12T21:02:06.340Z,14.77
2023-05-12T21:04:33.029Z,14.98
2023-05-12T21:06:59.374Z,15.07
2023-05-12T21:09:25.808Z,15.04
2023-05-12T21:11:52.177Z,14.54
2023-05-12T21:14:18.671Z,14.65
2023-05-12T21:16:45.078Z,14.34
2023-05-12T21:19:11.876Z,14.34
2023-05-12T21:21:38.358Z,14.43
2023-05-12T21:24:04.901Z,14.43
2023-05-12T21:26:31.250Z,14.49
2023-05-12T21:28:57.727Z,14.28
2023-05-12T21:31:24.292Z,14.31
2023-05-12T21:33:50.749Z,14.45
2023-05-12T21:36:17.106Z,14.50
2023-05-12T21:38:43.560Z,14.21
2023-05-12T21:41:10.026Z,14.17
2023-05-12T21:43:36.718Z,14.03
2023-05-12T21:46:04.543Z,14.07
2023-05-12T21:48:32.097Z,13.98
2023-05-12T21:51:03.384Z,14.03
2023-05-12T21:53:30.020Z,14.13
2023-05-12T21:55:56.476Z,14.16
2023-05-12T21:58:23.803Z,14.02
2023-05-12T22:00:51.566Z,14.03
2023-05-12T22:03:20.340Z,13.91
2023-05-12T22:05:47.018Z,13.89
2023-05-12T22:08:13.884Z,14.00
2023-05-12T22:10:40.461Z,13.70
2023-05-12T22:13:07.635Z,13.68
2023-05-12T22:15:34.612Z,13.51
2023-05-12T22:18:01.434Z,13.58
2023-05-12T22:20:28.127Z,13.60
2023-05-12T22:22:54.541Z,13.74
2023-05-12T22:25:20.972Z,13.62
2023-05-12T22:27:47.400Z,13.64
2023-05-12T22:30:14.148Z,13.51
2023-05-12T22:32:40.767Z,13.53
2023-05-12T22:35:07.828Z,13.41
2023-05-12T22:37:34.433Z,13.37
2023-05-12T22:40:00.883Z,13.33
2023-05-12T22:42:27.554Z,13.23
2023-05-12T22:44:54.020Z,13.20
2023-05-12T22:47:20.766Z,13.11
2023-05-12T22:49:47.213Z,13.08
2023-05-12T22:52:14.776Z,13.19
2023-05-12T22:54:41.171Z,13.19
2023-05-12T22:57:07.637Z,13.31
2023-05-12T22:59:34.295Z,13.40
2023-05-12T23:02:00.739Z,13.35
2023-05-12T23:04:27.425Z,13.23
2023-05-12T23:06:53.885Z,13.10
2023-05-12T23:09:20.334Z,13.12
2023-05-12T23:11:46.778Z,13.07
2023-05-12T23:14:13.265Z,12.95
2023-05-12T23:16:39.738Z,12.95
2023-05-12T23:19:06.143Z,13.03
2023-05-12T23:21:32.914Z,12.93
2023-05-12T23:23:59.449Z,13.04
2023-05-12T23:26:25.988Z,12.95
2023-05-12T23:28:52.412Z,12.84
2023-05-12T23:31:18.804Z,12.95
2023-05-12T23:33:45.333Z,13.00
2023-05-12T23:36:13.409Z,13.02
2023-05-12T23:38:39.941Z,12.98
2023-05-12T23:41:06.417Z,13.08
2023-05-12T23:43:32.919Z,13.10
2023-05-12T23:45:59.765Z,13.15
2023-05-12T23:48:26.553Z,12.98
2023-05-12T23:50:53.075Z,12.97
2023-05-12T23:53:19.760Z,12.84
2023-05-12T23:55:46.192Z,12.84
2023-05-12T23:58:12.635Z,12.77
